Time;durP1;ratioP1;P1;durP2;ratioP2;P2;SDS_P1;SDS_P2;PMS_P1;PMS_P2;Temp;Humidity;BMP_temperature;BMP_pressure;BME280_temperature;BME280_humidity;BME280_pressure;Samples;Min_cycle;Max_cycle;Signal;HPM_P1;HPM_P2
2021/04/02 00:01:23;;;;;;;2.00;1.80;;;14.50;91.70;;;;;;5038230;28;20199;-71
2021/04/02 00:03:51;;;;;;;3.47;1.40;;;14.50;91.70;;;;;;5049316;28;20216;-71
2021/04/02 00:06:18;;;;;;;3.15;1.98;;;14.40;91.70;;;;;;5050653;28;20206;-71
2021/04/02 00:08:45;;;;;;;2.85;1.92;;;14.40;91.70;;;;;;5044715;28;20663;-71
2021/04/02 00:11:13;;;;;;;2.95;2.42;;;14.40;91.80;;;;;;5048566;28;20547;-71
2021/04/02 00:13:41;;;;;;;2.25;1.67;;;14.40;91.90;;;;;;5034596;28;20203;-72
2021/04/02 00:16:09;;;;;;;1.98;1.77;;;14.30;91.90;;;;;;5070839;28;20202;-72
2021/04/02 00:18:35;;;;;;;3.28;2.03;;;14.30;91.90;;;;;;5062011;28;20199;-71
2021/04/02 00:21:05;;;;;;;4.22;2.03;;;14.30;91.90;;;;;;5037274;28;20199;-71
2021/04/02 00:23:33;;;;;;;2.25;1.70;;;14.30;92.00;;;;;;5030464;28;20210;-71
2021/04/02 00:25:59;;;;;;;3.58;1.98;;;14.30;92.00;;;;;;5034286;28;20198;-70
2021/04/02 00:28:26;;;;;;;5.20;2.08;;;14.20;92.00;;;;;;5049726;28;20203;-71
2021/04/02 00:30:55;;;;;;;2.90;1.70;;;14.20;92.10;;;;;;5043709;28;20281;-71
2021/04/02 00:33:23;;;;;;;1.60;1.45;;;14.20;92.10;;;;;;5036674;28;20298;-71
2021/04/02 00:35:50;;;;;;;3.65;1.73;;;14.20;92.10;;;;;;5053609;28;20206;-71
2021/04/02 00:38:17;;;;;;;3.60;1.50;;;14.20;92.20;;;;;;5036886;28;20219;-71
2021/04/02 00:40:48;;;;;;;2.80;1.98;;;14.10;92.20;;;;;;5046049;28;20217;-71
2021/04/02 00:43:15;;;;;;;3.38;1.90;;;14.10;92.30;;;;;;5056948;28;20206;-71
2021/04/02 00:45:42;;;;;;;2.65;1.60;;;14.10;92.30;;;;;;5042373;28;20230;-71
2021/04/02 00:48:09;;;;;;;2.95;1.70;;;14.10;92.40;;;;;;5057091;28;20202;-71
2021/04/02 00:50:39;;;;;;;2.25;1.60;;;14.00;92.40;;;;;;5053925;28;20202;-72
2021/04/02 00:53:06;;;;;;;2.60;1.65;;;14.00;92.50;;;;;;5052866;28;20226;-72
2021/04/02 00:55:33;;;;;;;3.60;1.98;;;14.10;92.50;;;;;;5036507;28;20691;-72
2021/04/02 00:58:00;;;;;;;3.05;2.10;;;14.00;92.50;;;;;;5056349;28;20230;-73
2021/04/02 01:00:26;;;;;;;2.65;2.17;;;14.00;92.60;;;;;;5054615;28;20195;-72
2021/04/02 01:02:55;;;;;;;2.40;1.95;;;14.00;92.60;;;;;;5038343;28;20199;-72
2021/04/02 01:05:24;;;;;;;3.28;1.70;;;14.00;92.70;;;;;;5052806;28;20195;-72
2021/04/02 01:07:52;;;;;;;3.28;2.20;;;14.00;92.80;;;;;;5056733;28;20754;-72
2021/04/02 01:10:20;;;;;;;2.50;1.75;;;13.90;92.70;;;;;;5055705;28;20254;-73
2021/04/02 01:12:48;;;;;;;2.33;2.13;;;13.90;92.80;;;;;;5036583;28;20191;-73
2021/04/02 01:15:20;;;;;;;4.50;1.90;;;13.90;93.20;;;;;;5056456;28;20562;-73
2021/04/02 01:17:50;;;;;;;3.40;2.22;;;13.80;92.80;;;;;;5056951;28;20211;-72
2021/04/02 01:20:17;;;;;;;3.30;2.13;;;13.80;92.90;;;;;;5048720;28;20261;-72
2021/04/02 01:22:44;;;;;;;2.35;1.58;;;13.80;92.90;;;;;;5038330;28;20210;-72
2021/04/02 01:25:24;;;;;;;4.78;1.90;;;13.90;93.00;;;;;;5056622;28;20206;-72
2021/04/02 01:28:07;;;;;;;6.15;2.25;;;13.70;93.00;;;;;;5056935;28;20190;-72
2021/04/02 01:30:37;;;;;;;4.15;2.13;;;13.70;93.10;;;;;;5047123;28;20199;-72
2021/04/02 01:33:06;;;;;;;1.50;1.30;;;13.70;93.10;;;;;;5036927;28;20222;-72
2021/04/02 01:35:35;;;;;;;3.80;2.10;;;13.70;93.10;;;;;;5036342;28;20208;-73
2021/04/02 01:38:06;;;;;;;3.17;2.03;;;13.70;93.20;;;;;;5037303;28;20226;-72
2021/04/02 01:40:35;;;;;;;2.75;1.45;;;13.70;93.20;;;;;;5056815;28;20198;-72
2021/04/02 01:43:05;;;;;;;3.00;1.77;;;13.60;93.20;;;;;;5051092;28;20207;-72
2021/04/02 01:45:32;;;;;;;2.35;1.38;;;13.60;93.20;;;;;;5053345;28;20257;-73
2021/04/02 01:48:02;;;;;;;2.08;1.83;;;13.60;93.30;;;;;;5051428;28;20238;-72
2021/04/02 01:50:29;;;;;;;2.75;2.22;;;13.60;93.40;;;;;;5049820;28;20209;-72
2021/04/02 01:52:57;;;;;;;5.55;2.67;;;13.60;93.40;;;;;;5053570;28;20566;-72
2021/04/02 01:55:24;;;;;;;1.95;1.50;;;13.50;93.40;;;;;;5053497;28;20733;-72
2021/04/02 01:57:51;;;;;;;2.10;1.70;;;13.50;93.40;;;;;;5050330;28;20219;-72
2021/04/02 02:00:21;;;;;;;1.95;1.75;;;13.50;93.40;;;;;;5048385;28;20329;-71
2021/04/02 02:02:48;;;;;;;2.08;1.80;;;13.50;93.50;;;;;;5050655;28;20776;-71
2021/04/02 02:05:16;;;;;;;2.10;1.90;;;13.40;93.50;;;;;;5036096;28;20195;-72
2021/04/02 02:07:43;;;;;;;2.95;2.25;;;13.40;93.50;;;;;;5052848;28;20206;-71
2021/04/02 02:10:12;;;;;;;3.88;1.70;;;13.40;93.50;;;;;;5053044;28;20214;-71
2021/04/02 02:12:42;;;;;;;4.50;2.22;;;13.40;93.60;;;;;;5051630;28;20203;-72
2021/04/02 02:15:12;;;;;;;3.75;2.08;;;13.40;93.60;;;;;;5033440;28;20199;-72
2021/04/02 02:17:40;;;;;;;2.80;1.95;;;13.40;93.70;;;;;;5032563;28;20223;-71
2021/04/02 02:20:08;;;;;;;3.20;2.17;;;13.30;93.70;;;;;;5032970;28;20200;-71
2021/04/02 02:22:38;;;;;;;3.38;2.15;;;13.30;93.80;;;;;;5044022;28;20211;-71
2021/04/02 02:25:05;;;;;;;5.03;1.90;;;13.30;93.90;;;;;;5052957;28;20271;-71
2021/04/02 02:27:32;;;;;;;5.32;2.00;;;13.30;93.90;;;;;;5052524;28;20206;-72
2021/04/02 02:29:58;;;;;;;4.03;2.45;;;13.30;93.90;;;;;;5041957;28;20223;-72
2021/04/02 02:32:25;;;;;;;3.85;1.55;;;13.20;93.90;;;;;;5040121;28;20203;-72
2021/04/02 02:34:52;;;;;;;4.53;2.97;;;13.20;94.00;;;;;;5052834;28;20256;-71
2021/04/02 02:37:19;;;;;;;5.95;2.10;;;13.20;94.00;;;;;;5051177;28;20229;-72
2021/04/02 02:39:47;;;;;;;2.75;1.83;;;13.20;94.00;;;;;;5052369;28;20199;-71
2021/04/02 02:42:13;;;;;;;3.67;2.00;;;13.20;94.10;;;;;;5044327;28;20824;-72
2021/04/02 02:44:40;;;;;;;3.17;2.10;;;13.20;94.20;;;;;;5031930;28;20231;-71
2021/04/02 02:47:07;;;;;;;1.98;1.60;;;13.10;94.20;;;;;;5047723;28;20213;-71
2021/04/02 02:49:34;;;;;;;2.22;1.52;;;13.10;94.20;;;;;;5031745;28;20670;-71
2021/04/02 02:52:02;;;;;;;5.68;1.90;;;13.10;94.30;;;;;;5034769;28;20583;-70
2021/04/02 02:54:30;;;;;;;4.22;2.28;;;13.10;94.30;;;;;;5031277;28;20219;-71
2021/04/02 02:56:59;;;;;;;3.72;1.70;;;13.10;94.40;;;;;;5033588;28;20211;-71
2021/04/02 02:59:27;;;;;;;6.85;2.17;;;13.10;94.40;;;;;;5045954;28;20200;-71
2021/04/02 03:01:55;;;;;;;2.65;2.00;;;13.00;94.40;;;;;;5032126;28;20541;-71
2021/04/02 03:04:22;;;;;;;2.30;1.90;;;13.10;94.40;;;;;;5049062;28;20256;-71
2021/04/02 03:06:52;;;;;;;2.80;1.83;;;13.00;94.50;;;;;;5052106;28;20187;-71
2021/04/02 03:09:19;;;;;;;3.90;2.20;;;13.00;94.50;;;;;;5049481;28;20692;-71
2021/04/02 03:11:46;;;;;;;4.97;2.00;;;13.00;94.60;;;;;;5051368;28;20203;-71
2021/04/02 03:14:16;;;;;;;4.05;2.03;;;13.00;94.60;;;;;;5051507;28;20206;-71
2021/04/02 03:16:49;;;;;;;3.70;2.00;;;12.90;94.60;;;;;;5032938;28;20203;-71
2021/04/02 03:19:18;;;;;;;3.08;2.10;;;12.90;94.70;;;;;;5031717;28;20230;-71
2021/04/02 03:21:47;;;;;;;4.22;1.88;;;12.90;94.70;;;;;;5031465;28;20218;-71
2021/04/02 03:24:15;;;;;;;3.97;1.60;;;12.90;94.80;;;;;;5031323;28;20703;-71
2021/04/02 03:26:43;;;;;;;2.80;2.08;;;12.90;94.90;;;;;;5040764;28;20203;-71
2021/04/02 03:29:12;;;;;;;5.28;2.05;;;12.90;94.90;;;;;;5048156;28;20206;-70
2021/04/02 03:31:40;;;;;;;3.33;2.10;;;12.80;94.80;;;;;;5031134;28;20203;-71
2021/04/02 03:34:10;;;;;;;4.25;1.70;;;12.80;95.00;;;;;;5038759;28;20214;-71
2021/04/02 03:36:39;;;;;;;2.25;1.85;;;12.80;95.00;;;;;;5040165;28;20183;-71
2021/04/02 03:39:09;;;;;;;3.85;2.13;;;12.80;95.00;;;;;;5050749;28;20701;-70
2021/04/02 03:41:36;;;;;;;2.85;1.60;;;12.80;95.20;;;;;;5052077;28;20206;-70
2021/04/02 03:44:04;;;;;;;3.80;1.98;;;12.80;95.10;;;;;;5051925;28;20195;-71
2021/04/02 03:46:32;;;;;;;1.83;1.58;;;12.70;95.10;;;;;;5042276;28;20287;-71
2021/04/02 03:49:02;;;;;;;6.30;2.30;;;12.70;95.20;;;;;;5031707;28;20203;-70
2021/04/02 03:51:31;;;;;;;2.40;1.58;;;12.70;95.20;;;;;;5032422;28;20290;-71
2021/04/02 03:54:01;;;;;;;4.20;2.55;;;12.70;95.20;;;;;;5042988;28;20256;-71
2021/04/02 03:56:31;;;;;;;2.80;1.83;;;12.70;95.30;;;;;;5051645;28;20633;-71
2021/04/02 03:58:59;;;;;;;3.65;1.80;;;12.70;95.30;;;;;;5051678;28;20600;-71
2021/04/02 04:01:27;;;;;;;2.60;2.40;;;12.60;95.30;;;;;;5044310;28;20252;-71
2021/04/02 04:03:57;;;;;;;4.07;1.98;;;12.60;95.30;;;;;;5031364;28;20199;-70
2021/04/02 04:06:25;;;;;;;3.13;1.52;;;12.60;95.40;;;;;;5039354;28;20199;-71
2021/04/02 04:08:55;;;;;;;4.05;1.80;;;12.60;95.40;;;;;;5051912;28;20201;-71
2021/04/02 04:11:24;;;;;;;4.88;1.80;;;12.60;95.40;;;;;;5047902;28;20206;-71
2021/04/02 04:13:52;;;;;;;4.18;1.73;;;12.60;95.50;;;;;;5051638;28;20261;-71
2021/04/02 04:16:22;;;;;;;4.43;2.10;;;12.60;95.50;;;;;;5051531;28;20205;-71
2021/04/02 04:18:54;;;;;;;4.93;2.55;;;12.60;95.50;;;;;;5051238;28;20218;-71
2021/04/02 04:21:23;;;;;;;3.67;2.35;;;12.60;95.60;;;;;;5046166;28;20534;-71
2021/04/02 04:23:50;;;;;;;3.13;2.58;;;12.50;95.50;;;;;;5033076;28;20208;-71
2021/04/02 04:26:18;;;;;;;4.43;3.10;;;12.50;95.50;;;;;;5031472;28;20207;-71
2021/04/02 04:28:48;;;;;;;5.93;3.40;;;12.50;95.60;;;;;;5031237;28;20222;-71
2021/04/02 04:31:18;;;;;;;7.80;2.70;;;12.50;95.70;;;;;;5041325;28;20208;-71
2021/04/02 04:33:46;;;;;;;8.43;3.97;;;12.40;95.90;;;;;;5031057;28;20217;-70
2021/04/02 04:36:14;;;;;;;4.13;3.58;;;12.40;95.90;;;;;;5031207;28;20200;-71
2021/04/02 04:38:41;;;;;;;5.95;3.30;;;12.40;95.90;;;;;;5047596;28;20266;-70
2021/04/02 04:41:09;;;;;;;3.30;2.80;;;12.40;95.90;;;;;;5049803;28;20199;-70
2021/04/02 04:43:37;;;;;;;3.85;2.90;;;12.40;95.90;;;;;;5045312;28;20202;-70
2021/04/02 04:46:04;;;;;;;3.40;3.10;;;12.40;96.10;;;;;;5042361;28;20326;-70
2021/04/02 04:48:30;;;;;;;3.90;3.30;;;12.40;96.20;;;;;;5036280;28;20196;-70
2021/04/02 04:50:57;;;;;;;6.00;3.40;;;12.40;96.20;;;;;;5040745;28;20226;-70
2021/04/02 04:53:25;;;;;;;5.95;3.97;;;12.30;96.30;;;;;;5031118;28;20233;-70
2021/04/02 04:55:54;;;;;;;5.25;4.50;;;12.30;96.30;;;;;;5030749;28;20203;-70
2021/04/02 04:58:25;;;;;;;7.82;4.40;;;12.30;96.30;;;;;;5033640;28;20218;-70
2021/04/02 05:00:53;;;;;;;3.55;3.25;;;12.30;96.30;;;;;;5051426;28;20184;-70
2021/04/02 05:03:21;;;;;;;4.10;3.70;;;12.30;96.40;;;;;;5050787;28;20697;-70
2021/04/02 05:05:52;;;;;;;6.38;4.07;;;12.30;96.30;;;;;;5044460;28;20191;-71
2021/04/02 05:08:23;;;;;;;5.72;3.85;;;12.30;96.40;;;;;;5050641;28;20191;-71
2021/04/02 05:10:52;;;;;;;4.28;3.88;;;12.30;96.40;;;;;;5050971;28;20191;-71
2021/04/02 05:13:22;;;;;;;8.80;3.78;;;12.30;96.40;;;;;;5050809;28;20199;-71
2021/04/02 05:15:49;;;;;;;7.47;3.92;;;12.30;96.40;;;;;;5040083;28;20199;-72
2021/04/02 05:18:16;;;;;;;5.13;3.63;;;12.30;96.40;;;;;;5034204;28;20219;-71
2021/04/02 05:20:44;;;;;;;5.28;3.95;;;12.30;96.50;;;;;;5036217;28;20195;-71
2021/04/02 05:23:11;;;;;;;7.82;4.63;;;12.30;96.60;;;;;;5040122;28;20198;-70
2021/04/02 05:25:37;;;;;;;4.18;3.75;;;12.20;96.50;;;;;;5054853;28;20198;-70
2021/04/02 05:28:06;;;;;;;4.18;3.53;;;12.20;96.70;;;;;;5053737;28;20727;-71
2021/04/02 05:30:34;;;;;;;4.80;3.83;;;12.20;96.70;;;;;;5049941;28;20195;-70
2021/04/02 05:33:00;;;;;;;5.95;4.18;;;12.20;96.80;;;;;;5034513;28;20227;-70
2021/04/02 05:35:27;;;;;;;4.00;3.20;;;12.20;96.80;;;;;;5044492;28;20196;-71
2021/04/02 05:37:53;;;;;;;7.15;4.28;;;12.20;96.80;;;;;;5033094;28;20220;-71
2021/04/02 05:40:20;;;;;;;6.63;4.35;;;12.20;96.80;;;;;;5039870;28;20191;-71
2021/04/02 05:42:55;;;;;;;4.15;3.75;;;12.20;96.80;;;;;;5046481;28;20195;-71
2021/04/02 05:45:23;;;;;;;4.85;4.13;;;12.20;97.00;;;;;;5039642;28;20572;-70
2021/04/02 05:47:53;;;;;;;5.55;3.90;;;12.20;96.90;;;;;;5034177;28;20338;-70
2021/04/02 05:50:20;;;;;;;6.28;4.80;;;12.20;97.00;;;;;;5034277;28;20195;-71
2021/04/02 05:52:49;;;;;;;6.75;4.05;;;12.10;97.00;;;;;;5035666;28;20207;-70
2021/04/02 05:55:16;;;;;;;4.47;3.58;;;12.00;97.40;;;;;;5034218;28;20643;-71
2021/04/02 05:57:44;;;;;;;7.82;5.60;;;12.00;97.40;;;;;;5050097;28;20223;-71
2021/04/02 06:00:12;;;;;;;5.85;4.35;;;12.00;97.40;;;;;;5048027;28;20900;-71
2021/04/02 06:02:39;;;;;;;5.78;5.07;;;12.00;97.50;;;;;;5037239;28;20200;-71
2021/04/02 06:05:08;;;;;;;5.10;4.40;;;12.00;97.50;;;;;;5041149;28;20290;-71
2021/04/02 06:07:37;;;;;;;9.90;6.45;;;12.00;97.40;;;;;;5047907;28;20257;-71
2021/04/02 06:10:04;;;;;;;5.97;4.80;;;12.00;97.40;;;;;;5046658;28;20201;-71
2021/04/02 06:12:34;;;;;;;6.50;5.40;;;12.00;97.50;;;;;;5045600;28;20196;-71
2021/04/02 06:15:01;;;;;;;6.70;5.05;;;12.00;97.60;;;;;;5033476;28;20198;-71
2021/04/02 06:17:27;;;;;;;13.48;5.90;;;12.00;97.50;;;;;;5036934;28;20211;-72
2021/04/02 06:20:04;;;;;;;6.28;5.15;;;12.00;97.50;;;;;;5053460;28;20214;-72
2021/04/02 06:22:32;;;;;;;8.40;5.60;;;12.00;97.60;;;;;;5033091;28;20203;-72
2021/04/02 06:25:03;;;;;;;8.48;5.55;;;12.00;97.60;;;;;;5038075;28;20574;-71
2021/04/02 06:27:30;;;;;;;9.30;6.45;;;12.00;97.60;;;;;;5033821;28;20196;-71
2021/04/02 06:30:02;;;;;;;8.73;6.15;;;12.00;97.60;;;;;;5038640;28;20199;-71
2021/04/02 06:32:36;;;;;;;7.20;6.15;;;11.90;97.80;;;;;;5037052;28;20306;-70
2021/04/02 06:35:07;;;;;;;7.70;5.63;;;11.80;97.90;;;;;;5038614;28;20556;-71
2021/04/02 06:44:24;;;;;;;10.00;6.38;;;11.80;98.10;;;;;;5031883;28;20187;-70
2021/04/02 06:47:07;;;;;;;8.18;4.60;;;11.90;97.80;;;;;;5045154;28;20256;-72
2021/04/02 06:49:59;;;;;;;6.00;5.40;;;11.90;97.90;;;;;;5050985;28;20202;-69
2021/04/02 06:52:56;;;;;;;8.00;5.35;;;11.90;98.00;;;;;;5050203;28;20211;-70
2021/04/02 06:55:48;;;;;;;7.00;5.13;;;11.80;98.10;;;;;;5047737;28;20199;-70
2021/04/02 06:58:58;;;;;;;5.05;4.35;;;11.90;98.00;;;;;;5045640;28;20466;-71
2021/04/02 08:11:35;;;;;;;5.35;3.15;;;11.80;98.30;;;;;;5023584;28;20532;-74
2021/04/02 09:18:49;;;;;;;2.85;2.22;;;12.00;97.50;;;;;;5045654;28;20287;-72
2021/04/02 09:21:17;;;;;;;3.33;2.10;;;12.00;97.20;;;;;;5049444;28;20535;-72
2021/04/02 09:23:43;;;;;;;2.78;1.90;;;12.10;97.30;;;;;;5035022;28;20551;-73
2021/04/02 09:26:10;;;;;;;2.88;2.50;;;12.10;97.10;;;;;;5034435;28;20279;-72
2021/04/02 09:28:38;;;;;;;4.25;2.08;;;12.10;97.00;;;;;;5040018;28;20195;-73
2021/04/02 09:31:21;;;;;;;4.07;2.95;;;12.10;97.00;;;;;;5036507;28;20251;-71
2021/04/02 09:33:53;;;;;;;3.38;1.88;;;12.10;97.00;;;;;;5035760;28;20191;-70
2021/04/02 09:36:21;;;;;;;3.45;2.10;;;12.10;97.10;;;;;;5034640;28;20271;-71
2021/04/02 09:38:48;;;;;;;2.88;1.88;;;12.10;97.00;;;;;;5047694;28;20226;-71
2021/04/02 09:41:20;;;;;;;2.38;1.65;;;12.10;97.00;;;;;;5038264;28;20197;-71
2021/04/02 09:43:49;;;;;;;3.58;1.98;;;12.10;97.10;;;;;;5053373;28;20199;-70
2021/04/02 09:46:27;;;;;;;2.50;2.00;;;12.10;97.00;;;;;;5037351;28;20200;-70
2021/04/02 09:49:01;;;;;;;2.63;2.42;;;12.10;96.90;;;;;;5047022;28;20649;-70
2021/04/02 09:51:28;;;;;;;2.53;1.77;;;12.10;97.00;;;;;;5040195;28;20180;-71
2021/04/02 09:53:54;;;;;;;2.90;2.08;;;12.10;97.00;;;;;;5034454;28;20207;-70
2021/04/02 09:56:21;;;;;;;4.43;2.03;;;12.10;97.00;;;;;;5033935;28;20204;-70
2021/04/02 09:58:47;;;;;;;4.57;2.28;;;12.20;96.90;;;;;;5040247;28;20302;-70
2021/04/02 10:01:13;;;;;;;4.00;1.90;;;12.10;96.90;;;;;;5045912;28;20286;-71
2021/04/02 10:03:39;;;;;;;2.58;1.80;;;12.10;96.80;;;;;;5053013;28;20261;-72
2021/04/02 10:06:07;;;;;;;2.45;2.00;;;12.20;96.80;;;;;;5053926;28;20195;-72
2021/04/02 10:08:33;;;;;;;2.78;1.88;;;12.20;96.50;;;;;;5049471;28;20231;-71
2021/04/02 10:10:59;;;;;;;1.70;1.60;;;12.20;96.60;;;;;;5040856;28;20588;-71
2021/04/02 10:13:26;;;;;;;3.67;1.73;;;12.20;96.50;;;;;;5049149;28;20649;-71
2021/04/02 10:15:52;;;;;;;3.20;2.03;;;12.20;96.30;;;;;;5045040;28;20579;-71
2021/04/02 10:18:20;;;;;;;5.10;2.30;;;12.20;96.20;;;;;;5047932;28;20675;-72
2021/04/02 10:20:46;;;;;;;3.42;2.05;;;12.20;96.10;;;;;;5053045;28;20286;-71
2021/04/02 10:23:13;;;;;;;2.97;1.80;;;12.20;96.20;;;;;;5046880;28;20202;-71
2021/04/02 10:25:40;;;;;;;3.45;1.90;;;12.20;96.10;;;;;;5040481;28;20376;-71
2021/04/02 10:28:06;;;;;;;2.22;1.70;;;12.30;96.00;;;;;;5053073;28;20654;-71
2021/04/02 10:30:32;;;;;;;3.35;1.77;;;12.30;95.90;;;;;;5052273;28;20257;-72
2021/04/02 10:32:58;;;;;;;3.30;2.10;;;12.30;95.80;;;;;;5047326;28;20631;-70
2021/04/02 10:35:27;;;;;;;1.95;1.52;;;12.30;95.80;;;;;;5039651;28;20666;-74
2021/04/02 10:37:53;;;;;;;1.52;1.30;;;12.30;95.80;;;;;;5034616;28;20536;-74
2021/04/02 10:50:27;;;;;;;2.10;1.75;;;12.30;95.90;;;;;;5041707;28;20194;-71
2021/04/02 11:09:49;;;;;;;3.70;1.90;;;12.30;96.00;;;;;;5027704;28;20298;-71
2021/04/02 11:12:16;;;;;;;1.98;1.30;;;12.40;95.90;;;;;;5034534;28;20192;-70
2021/04/02 11:14:42;;;;;;;2.17;1.30;;;12.40;95.80;;;;;;5043473;28;20241;-70
2021/04/02 11:17:08;;;;;;;2.70;1.50;;;12.40;95.80;;;;;;5048853;28;20635;-71
2021/04/02 11:19:35;;;;;;;5.63;1.40;;;12.40;95.80;;;;;;5042902;28;20241;-70
2021/04/02 11:22:01;;;;;;;2.15;1.70;;;12.40;95.70;;;;;;5041083;28;20199;-71
2021/04/02 11:24:27;;;;;;;2.00;1.60;;;12.40;95.70;;;;;;5044829;28;20627;-70
2021/04/02 11:26:55;;;;;;;3.20;1.52;;;12.40;95.60;;;;;;5050138;28;20206;-69
2021/04/02 11:29:22;;;;;;;2.65;1.75;;;12.40;95.60;;;;;;5043271;28;20815;-70
2021/04/02 11:31:48;;;;;;;5.80;1.88;;;12.40;95.60;;;;;;5040159;28;20619;-70
2021/04/02 11:34:14;;;;;;;2.35;1.50;;;12.40;95.60;;;;;;5035300;28;20203;-71
2021/04/02 11:36:40;;;;;;;3.88;2.17;;;12.40;95.60;;;;;;5039761;28;20203;-70
2021/04/02 11:39:07;;;;;;;2.20;2.00;;;12.40;95.50;;;;;;5039378;28;20548;-70
2021/04/02 11:41:33;;;;;;;6.82;3.10;;;12.40;95.30;;;;;;5047239;28;20203;-70
2021/04/02 11:44:01;;;;;;;3.40;1.63;;;12.40;95.30;;;;;;5045098;28;20195;-70
2021/04/02 11:46:30;;;;;;;3.33;1.73;;;12.40;95.30;;;;;;5049663;28;20213;-69
2021/04/02 11:48:56;;;;;;;3.40;2.20;;;12.40;95.30;;;;;;5044054;28;20198;-69
2021/04/02 11:51:22;;;;;;;3.85;2.40;;;12.40;94.70;;;;;;5050551;28;20199;-70
2021/04/02 11:53:49;;;;;;;4.78;2.17;;;12.40;94.90;;;;;;5051817;28;20286;-72
2021/04/02 11:56:15;;;;;;;2.63;2.42;;;12.40;93.80;;;;;;5050571;28;20231;-71
2021/04/02 11:58:41;;;;;;;4.70;2.45;;;12.50;93.50;;;;;;5032558;28;20219;-72
2021/04/02 12:01:08;;;;;;;2.75;2.47;;;12.50;93.40;;;;;;5033361;28;20233;-71
2021/04/02 12:03:35;;;;;;;2.92;2.00;;;12.50;93.50;;;;;;5051211;28;20203;-71
2021/04/02 12:06:01;;;;;;;3.08;2.20;;;12.60;93.60;;;;;;5050381;28;20278;-72
2021/04/02 12:08:28;;;;;;;2.78;2.20;;;12.60;93.50;;;;;;5045495;28;20201;-73
2021/04/02 12:10:55;;;;;;;3.15;2.08;;;12.60;93.50;;;;;;5051437;28;20207;-72
2021/04/02 12:13:22;;;;;;;4.47;3.05;;;12.60;93.80;;;;;;5047728;28;20280;-72
2021/04/02 12:15:48;;;;;;;2.08;1.80;;;12.60;93.50;;;;;;5044528;28;20226;-71
2021/04/02 12:18:19;;;;;;;3.75;2.20;;;12.70;93.70;;;;;;5035505;28;20215;-72
2021/04/02 12:20:46;;;;;;;2.83;2.20;;;12.60;93.90;;;;;;5049098;28;20669;-70
2021/04/02 12:23:12;;;;;;;3.65;2.63;;;12.60;93.70;;;;;;5042884;28;20192;-71
2021/04/02 12:25:39;;;;;;;3.90;2.40;;;12.70;93.10;;;;;;5040171;28;20277;-71
2021/04/02 12:28:06;;;;;;;2.88;2.40;;;12.70;92.90;;;;;;5038710;28;20187;-71
2021/04/02 12:30:32;;;;;;;2.20;2.00;;;12.70;92.50;;;;;;5050924;28;20535;-71
2021/04/02 12:32:59;;;;;;;2.53;1.95;;;12.70;92.50;;;;;;5050058;28;20199;-71
2021/04/02 12:35:26;;;;;;;2.78;1.80;;;12.80;92.70;;;;;;5051352;28;20205;-72
2021/04/02 12:37:53;;;;;;;2.38;2.17;;;12.70;93.30;;;;;;5042434;28;20298;-72
2021/04/02 12:40:22;;;;;;;4.70;1.65;;;12.70;92.70;;;;;;5030978;28;20206;-70
2021/04/02 12:42:49;;;;;;;5.15;2.05;;;12.70;92.00;;;;;;5040491;28;20230;-71
2021/04/02 12:45:16;;;;;;;3.00;2.00;;;12.70;92.10;;;;;;5045976;28;20698;-71
2021/04/02 12:47:44;;;;;;;2.88;1.63;;;12.70;91.90;;;;;;5050362;28;20639;-70
2021/04/02 12:50:12;;;;;;;3.03;1.90;;;12.70;92.20;;;;;;5049374;28;20615;-72
2021/04/02 12:52:39;;;;;;;4.30;2.55;;;12.80;91.80;;;;;;5050343;28;20226;-71
2021/04/02 12:55:07;;;;;;;3.10;1.90;;;12.80;91.50;;;;;;5038948;28;20221;-73
2021/04/02 12:57:34;;;;;;;3.75;2.20;;;12.70;91.30;;;;;;5041175;28;20843;-71
2021/04/02 13:00:00;;;;;;;2.45;1.90;;;12.80;91.20;;;;;;5041414;28;20229;-71
2021/04/02 13:02:27;;;;;;;3.97;1.60;;;12.80;91.60;;;;;;5030877;28;20261;-72
2021/04/02 13:04:53;;;;;;;4.78;1.95;;;12.80;91.70;;;;;;5035739;28;21290;-73
2021/04/02 13:07:20;;;;;;;3.42;2.38;;;12.80;90.70;;;;;;5046501;28;20230;-73
2021/04/02 13:09:47;;;;;;;2.17;1.70;;;12.80;90.00;;;;;;5049020;28;20277;-72
2021/04/02 13:12:14;;;;;;;4.07;1.98;;;12.80;90.20;;;;;;5050808;28;20222;-72
2021/04/02 13:14:40;;;;;;;4.55;1.50;;;12.90;90.50;;;;;;5050731;28;20511;-72
2021/04/02 13:17:07;;;;;;;3.03;1.77;;;12.90;91.10;;;;;;5050034;28;20565;-72
2021/04/02 13:19:35;;;;;;;2.85;1.65;;;12.90;91.50;;;;;;5049385;28;20694;-72
2021/04/02 13:22:02;;;;;;;3.63;2.22;;;12.90;90.90;;;;;;5050599;28;20213;-72
2021/04/02 13:24:29;;;;;;;2.03;1.85;;;12.90;90.90;;;;;;5050324;28;20214;-71
2021/04/02 13:26:56;;;;;;;3.22;1.50;;;12.90;91.10;;;;;;5049136;28;20203;-72
2021/04/02 13:29:23;;;;;;;3.47;1.58;;;12.90;91.20;;;;;;5049263;28;20671;-72
2021/04/02 13:31:50;;;;;;;5.55;2.10;;;12.90;90.20;;;;;;5036687;28;20746;-71
2021/04/02 13:34:16;;;;;;;6.47;2.38;;;12.90;89.20;;;;;;5042830;28;20647;-71
2021/04/02 13:36:43;;;;;;;3.67;1.60;;;12.90;89.00;;;;;;5030260;28;20199;-73
2021/04/02 13:39:10;;;;;;;2.75;1.85;;;13.00;89.90;;;;;;5039336;28;20265;-72
2021/04/02 13:41:36;;;;;;;2.63;1.50;;;13.00;90.40;;;;;;5053429;28;20281;-71
2021/04/02 13:44:05;;;;;;;3.97;1.95;;;13.00;89.90;;;;;;5042976;28;20261;-71
2021/04/02 13:46:31;;;;;;;3.28;1.65;;;13.00;89.90;;;;;;5033621;28;20298;-71
2021/04/02 13:48:58;;;;;;;4.82;1.48;;;13.00;90.60;;;;;;5033530;28;20218;-71
2021/04/02 13:51:24;;;;;;;3.42;1.90;;;13.10;91.10;;;;;;5041036;28;20551;-71
2021/04/02 13:53:51;;;;;;;6.47;2.65;;;13.10;90.50;;;;;;5053463;28;20199;-72
2021/04/02 13:56:17;;;;;;;4.07;2.38;;;13.10;89.80;;;;;;5052948;28;20294;-71
2021/04/02 13:58:43;;;;;;;3.00;1.70;;;13.10;88.90;;;;;;5051259;28;20226;-72
2021/04/02 14:01:11;;;;;;;3.92;1.55;;;13.20;90.60;;;;;;5053147;28;20233;-71
2021/04/02 14:03:37;;;;;;;2.83;1.50;;;13.20;90.90;;;;;;5053535;28;20214;-71
2021/04/02 14:06:04;;;;;;;2.53;1.80;;;13.20;91.00;;;;;;5051591;28;20203;-72
2021/04/02 14:08:30;;;;;;;1.77;1.63;;;13.20;90.50;;;;;;5053189;28;20209;-73
2021/04/02 14:10:57;;;;;;;3.42;1.50;;;13.20;90.90;;;;;;5044231;28;20584;-72
2021/04/02 14:13:24;;;;;;;2.65;1.50;;;13.20;90.50;;;;;;5036493;28;20187;-69
2021/04/02 14:15:51;;;;;;;1.50;1.40;;;13.20;90.50;;;;;;5040151;28;20195;-72
2021/04/02 14:18:20;;;;;;;10.65;2.38;;;13.20;89.90;;;;;;5037707;28;20219;-72
2021/04/02 14:20:48;;;;;;;4.07;1.70;;;13.30;90.20;;;;;;5044360;28;20218;-69
2021/04/02 14:23:15;;;;;;;3.28;1.65;;;13.20;89.90;;;;;;5041098;28;20214;-71
2021/04/02 14:25:42;;;;;;;3.22;1.45;;;13.20;89.90;;;;;;5045348;28;20203;-71
2021/04/02 14:28:09;;;;;;;2.47;1.50;;;13.30;89.00;;;;;;5040532;28;20223;-70
2021/04/02 14:30:39;;;;;;;4.40;1.88;;;13.20;88.90;;;;;;5024048;28;20199;-70
2021/04/02 14:33:07;;;;;;;1.58;1.33;;;13.30;89.70;;;;;;5034494;28;20244;-71
2021/04/02 14:35:37;;;;;;;2.97;1.60;;;13.30;89.80;;;;;;5051621;28;21014;-71
2021/04/02 14:38:06;;;;;;;5.50;1.70;;;13.30;89.70;;;;;;5052040;28;20233;-72
2021/04/02 14:40:33;;;;;;;3.85;1.85;;;13.30;90.20;;;;;;5050654;28;20662;-71
2021/04/02 14:42:59;;;;;;;3.70;2.20;;;13.20;89.10;;;;;;5051928;28;20306;-73
2021/04/02 14:45:26;;;;;;;2.80;1.75;;;13.20;88.50;;;;;;5051534;28;20203;-71
2021/04/02 14:47:53;;;;;;;2.20;1.42;;;13.20;87.90;;;;;;5050342;28;20248;-71
2021/04/02 14:50:22;;;;;;;6.28;1.60;;;13.20;87.80;;;;;;5051818;28;20206;-71
2021/04/02 14:52:49;;;;;;;3.17;2.03;;;13.20;86.90;;;;;;5050930;28;20202;-70
2021/04/02 14:55:15;;;;;;;4.28;2.03;;;13.30;87.50;;;;;;5051687;28;20194;-71
2021/04/02 14:57:42;;;;;;;3.53;2.15;;;13.20;86.80;;;;;;5050372;28;20210;-72
2021/04/02 15:00:11;;;;;;;6.30;1.60;;;13.20;85.90;;;;;;5051609;28;20238;-71
2021/04/02 15:02:37;;;;;;;5.28;2.05;;;13.30;85.80;;;;;;5049643;28;20203;-70
2021/04/02 15:05:05;;;;;;;4.50;1.83;;;13.20;85.40;;;;;;5050781;28;20194;-70
2021/04/02 15:07:32;;;;;;;4.75;1.90;;;13.20;86.10;;;;;;5051269;28;20203;-69
2021/04/02 15:09:59;;;;;;;3.17;2.00;;;13.20;86.40;;;;;;5051084;28;20643;-70
2021/04/02 15:12:26;;;;;;;2.28;1.45;;;13.30;86.80;;;;;;5049259;28;20203;-72
2021/04/02 15:14:53;;;;;;;5.57;1.50;;;13.20;87.10;;;;;;5044054;28;20254;-72
2021/04/02 15:17:19;;;;;;;6.70;2.20;;;13.30;87.30;;;;;;5045890;28;20205;-72
2021/04/02 15:19:46;;;;;;;4.50;1.83;;;13.30;87.70;;;;;;5051379;28;20313;-72
2021/04/02 15:22:12;;;;;;;6.85;1.83;;;13.30;88.00;;;;;;5050404;28;20207;-72
2021/04/02 15:24:38;;;;;;;4.55;1.40;;;13.20;88.10;;;;;;5050582;28;20192;-72
2021/04/02 15:27:07;;;;;;;4.80;2.20;;;13.30;88.60;;;;;;5044624;28;20598;-72
2021/04/02 15:29:34;;;;;;;3.80;1.90;;;13.30;88.60;;;;;;5031355;28;20211;-72
2021/04/02 15:32:00;;;;;;;2.92;1.40;;;13.30;88.30;;;;;;5031707;28;20204;-72
2021/04/02 15:34:27;;;;;;;7.15;1.77;;;13.20;88.40;;;;;;5044773;28;20225;-72
2021/04/02 15:36:54;;;;;;;4.68;2.10;;;13.30;88.40;;;;;;5051313;28;20195;-73
2021/04/02 15:39:20;;;;;;;5.00;1.95;;;13.20;88.30;;;;;;5051432;28;20230;-72